Time;durP1;ratioP1;P1;durP2;ratioP2;P2;SDS_P1;SDS_P2;PMS_P1;PMS_P2;Temp;Humidity;BMP_temperature;BMP_pressure;BME280_temperature;BME280_humidity;BME280_pressure;Samples;Min_cycle;Max_cycle;Signal;HPM_P1;HPM_P2
2024/04/15 00:01:47;;;;;;;7.25;2.03;;;;;;;;;;5348802;26;20000;-63
2024/04/15 00:04:13;;;;;;;5.90;2.13;;;;;;;;;;5357954;26;20000;-63
2024/04/15 00:06:39;;;;;;;6.15;2.33;;;;;;;;;;5350551;26;20698;-63
2024/04/15 00:09:05;;;;;;;2.50;1.90;;;;;;;;;;5363752;26;20008;-63
2024/04/15 00:11:31;;;;;;;4.13;2.50;;;;;;;;;;5352592;26;20019;-63
2024/04/15 00:13:57;;;;;;;9.15;1.83;;;;;;;;;;5334959;26;20011;-63
2024/04/15 00:16:24;;;;;;;3.63;2.20;;;;;;;;;;5354770;26;20009;-63
2024/04/15 00:18:50;;;;;;;5.50;2.00;;;;;;;;;;5351794;26;20397;-63
2024/04/15 00:21:16;;;;;;;6.85;2.50;;;;;;;;;;5356522;26;20011;-63
2024/04/15 00:23:42;;;;;;;5.03;2.75;;;;;;;;;;5378556;26;20461;-63
2024/04/15 00:26:08;;;;;;;1.83;1.70;;;;;;;;;;5357925;26;20017;-63
2024/04/15 00:28:34;;;;;;;6.97;2.42;;;;;;;;;;5348346;26;20003;-64
2024/04/15 00:31:00;;;;;;;5.65;2.33;;;;;;;;;;5356475;26;20012;-63
2024/04/15 00:33:26;;;;;;;4.65;1.90;;;;;;;;;;5376953;26;20449;-63
2024/04/15 00:35:53;;;;;;;4.65;2.15;;;;;;;;;;5350139;26;20008;-63
2024/04/15 00:38:19;;;;;;;8.80;2.60;;;;;;;;;;5347325;26;20004;-63
2024/04/15 00:40:45;;;;;;;2.17;1.60;;;;;;;;;;5355977;26;20410;-63
2024/04/15 00:43:11;;;;;;;2.78;2.53;;;;;;;;;;5361433;26;20024;-63
2024/04/15 00:45:37;;;;;;;6.88;2.53;;;;;;;;;;5355755;26;20739;-64
2024/04/15 00:48:08;;;;;;;12.50;2.80;;;;;;;;;;5360810;26;20000;-63
2024/04/15 00:50:38;;;;;;;3.95;2.42;;;;;;;;;;5352712;26;19992;-64
2024/04/15 00:53:05;;;;;;;6.13;2.13;;;;;;;;;;5355686;26;20001;-64
2024/04/15 00:55:32;;;;;;;10.32;2.03;;;;;;;;;;5356532;26;20007;-64
2024/04/15 00:57:59;;;;;;;7.13;3.35;;;;;;;;;;5355862;26;20000;-65
2024/04/15 01:00:25;;;;;;;6.63;2.42;;;;;;;;;;5350351;26;20000;-63
2024/04/15 01:02:52;;;;;;;3.50;2.10;;;;;;;;;;5353179;26;20024;-64
2024/04/15 01:05:18;;;;;;;6.18;2.50;;;;;;;;;;5353804;26;20078;-63
2024/04/15 01:07:44;;;;;;;3.45;2.30;;;;;;;;;;5380036;26;19993;-64
2024/04/15 01:10:11;;;;;;;5.63;2.40;;;;;;;;;;5353707;26;20107;-65
2024/04/15 01:12:37;;;;;;;7.55;2.05;;;;;;;;;;5338736;26;20073;-64
2024/04/15 01:15:03;;;;;;;7.72;2.17;;;;;;;;;;5353971;26;20023;-63
2024/04/15 01:17:29;;;;;;;2.70;1.70;;;;;;;;;;5354901;26;20012;-63
2024/04/15 01:19:57;;;;;;;3.22;1.85;;;;;;;;;;5365912;26;20015;-63
2024/04/15 01:22:24;;;;;;;4.20;1.73;;;;;;;;;;5357143;26;20438;-64
2024/04/15 01:24:51;;;;;;;5.75;2.28;;;;;;;;;;5351481;26;20444;-63
2024/04/15 01:27:18;;;;;;;3.05;2.30;;;;;;;;;;5366355;26;20004;-63
2024/04/15 01:29:44;;;;;;;6.85;1.90;;;;;;;;;;5351068;26;20011;-63
2024/04/15 01:32:10;;;;;;;6.97;2.30;;;;;;;;;;5385223;26;20008;-63
2024/04/15 01:34:36;;;;;;;4.43;2.15;;;;;;;;;;5345155;26;19993;-63
2024/04/15 01:37:03;;;;;;;2.03;1.73;;;;;;;;;;5366185;26;19996;-64
2024/04/15 01:39:29;;;;;;;4.07;1.80;;;;;;;;;;5352503;26;20015;-63
2024/04/15 01:41:55;;;;;;;6.45;2.58;;;;;;;;;;5355514;26;20019;-69
2024/04/15 01:44:22;;;;;;;3.15;2.05;;;;;;;;;;5364820;26;22072;-68
2024/04/15 01:46:48;;;;;;;7.93;1.60;;;;;;;;;;5357456;26;21525;-69
2024/04/15 01:49:14;;;;;;;4.00;2.55;;;;;;;;;;5348442;26;20005;-70
2024/04/15 01:51:40;;;;;;;5.07;1.75;;;;;;;;;;5391898;26;20342;-69
2024/04/15 01:54:06;;;;;;;6.72;2.20;;;;;;;;;;5352249;26;19996;-68
2024/04/15 01:56:32;;;;;;;3.70;2.13;;;;;;;;;;5360795;26;20004;-68
2024/04/15 01:58:59;;;;;;;7.38;2.40;;;;;;;;;;5347678;26;20004;-69
2024/04/15 02:01:25;;;;;;;4.53;1.92;;;;;;;;;;5353624;26;20337;-68
2024/04/15 02:03:51;;;;;;;4.22;1.50;;;;;;;;;;5366897;26;20016;-68
2024/04/15 02:06:17;;;;;;;5.70;2.17;;;;;;;;;;5373623;26;20000;-67
2024/04/15 02:08:44;;;;;;;6.50;1.67;;;;;;;;;;5365826;26;20008;-67
2024/04/15 02:11:10;;;;;;;1.38;1.30;;;;;;;;;;5361831;26;20012;-68
2024/04/15 02:13:36;;;;;;;4.13;1.48;;;;;;;;;;5370744;26;20036;-68
2024/04/15 02:16:02;;;;;;;1.95;1.42;;;;;;;;;;5361300;26;20004;-68
2024/04/15 02:18:28;;;;;;;5.95;2.00;;;;;;;;;;5374036;26;20011;-68
2024/04/15 02:20:55;;;;;;;2.60;1.40;;;;;;;;;;5361681;26;20019;-68
2024/04/15 02:23:22;;;;;;;1.38;1.27;;;;;;;;;;5351134;26;20007;-67
2024/04/15 02:25:48;;;;;;;1.55;1.38;;;;;;;;;;5358130;26;20023;-69
2024/04/15 02:28:14;;;;;;;0.95;0.95;;;;;;;;;;5358248;26;20004;-67
2024/04/15 02:30:41;;;;;;;2.00;1.27;;;;;;;;;;5362774;26;20007;-67
2024/04/15 02:33:07;;;;;;;2.08;1.30;;;;;;;;;;5354380;26;20013;-68
2024/04/15 02:35:33;;;;;;;1.42;1.33;;;;;;;;;;5372919;26;20000;-70
2024/04/15 02:37:59;;;;;;;1.77;1.38;;;;;;;;;;5368351;26;20046;-68
2024/04/15 02:40:25;;;;;;;1.10;1.10;;;;;;;;;;5354145;26;19997;-68
2024/04/15 02:42:51;;;;;;;1.08;1.08;;;;;;;;;;5361836;26;20007;-68
2024/04/15 02:45:17;;;;;;;1.08;1.08;;;;;;;;;;5366227;26;20680;-68
2024/04/15 02:47:44;;;;;;;2.20;1.63;;;;;;;;;;5368353;26;20012;-68
2024/04/15 02:50:10;;;;;;;1.92;1.50;;;;;;;;;;5356904;26;20004;-68
2024/04/15 02:52:36;;;;;;;0.90;0.90;;;;;;;;;;5362590;26;20856;-67
2024/04/15 02:55:02;;;;;;;1.20;1.20;;;;;;;;;;5333810;26;20000;-67
2024/04/15 02:57:28;;;;;;;1.45;1.40;;;;;;;;;;5368873;26;20014;-68
2024/04/15 02:59:55;;;;;;;3.03;1.20;;;;;;;;;;5359514;26;20007;-67
2024/04/15 03:02:21;;;;;;;1.20;1.20;;;;;;;;;;5354926;26;20016;-67
2024/04/15 03:04:47;;;;;;;1.83;1.73;;;;;;;;;;5362488;26;20012;-67
2024/04/15 03:07:13;;;;;;;3.70;1.40;;;;;;;;;;5358230;26;20018;-68
2024/04/15 03:09:40;;;;;;;1.20;1.20;;;;;;;;;;5362697;26;19996;-67
2024/04/15 03:12:06;;;;;;;1.40;1.30;;;;;;;;;;5360282;26;20009;-68
2024/04/15 03:14:32;;;;;;;3.25;1.77;;;;;;;;;;5371576;26;20012;-67
2024/04/15 03:16:58;;;;;;;1.85;1.33;;;;;;;;;;5365860;26;20001;-67
2024/04/15 03:19:25;;;;;;;1.98;1.35;;;;;;;;;;5355410;26;20004;-68
2024/04/15 03:21:51;;;;;;;3.80;1.40;;;;;;;;;;5359816;26;20000;-67
2024/04/15 03:24:17;;;;;;;1.30;1.30;;;;;;;;;;5365102;26;20001;-67
2024/04/15 03:26:44;;;;;;;2.65;1.63;;;;;;;;;;5363898;26;20023;-67
2024/04/15 03:29:11;;;;;;;10.35;1.75;;;;;;;;;;5362436;26;19997;-68
2024/04/15 03:31:37;;;;;;;1.45;1.40;;;;;;;;;;5359543;26;20000;-67
2024/04/15 03:34:03;;;;;;;1.48;1.38;;;;;;;;;;5363191;26;20014;-67
2024/04/15 03:36:29;;;;;;;1.23;1.20;;;;;;;;;;5365657;26;20000;-68
2024/04/15 03:38:56;;;;;;;2.72;1.25;;;;;;;;;;5377875;26;20011;-67
2024/04/15 03:41:22;;;;;;;1.20;1.20;;;;;;;;;;5368095;26;20004;-68
2024/04/15 03:43:48;;;;;;;1.83;1.10;;;;;;;;;;5363951;26;20018;-68
2024/04/15 03:46:14;;;;;;;2.45;1.27;;;;;;;;;;5366303;26;20012;-67
2024/04/15 03:48:40;;;;;;;1.55;1.45;;;;;;;;;;5376466;26;20463;-67
2024/04/15 03:51:06;;;;;;;1.38;1.30;;;;;;;;;;5371340;26;20039;-68
2024/04/15 03:53:32;;;;;;;3.50;1.27;;;;;;;;;;5364186;26;20440;-67
2024/04/15 03:55:59;;;;;;;1.55;1.30;;;;;;;;;;5372619;26;20012;-67
2024/04/15 03:58:25;;;;;;;6.53;2.08;;;;;;;;;;5373734;26;20012;-67
2024/04/15 04:00:51;;;;;;;7.65;1.70;;;;;;;;;;5363089;26;20022;-68
2024/04/15 04:03:17;;;;;;;4.32;1.50;;;;;;;;;;5365398;26;20028;-67
2024/04/15 04:05:44;;;;;;;8.82;2.00;;;;;;;;;;5362212;26;20069;-67
2024/04/15 04:08:10;;;;;;;9.70;2.28;;;;;;;;;;5368607;26;20182;-67
2024/04/15 04:10:36;;;;;;;1.98;1.77;;;;;;;;;;5367884;26;20011;-67
2024/04/15 04:13:02;;;;;;;6.18;2.70;;;;;;;;;;5365731;26;20019;-67
2024/04/15 04:15:29;;;;;;;2.03;1.25;;;;;;;;;;5367523;26;20040;-67
2024/04/15 04:17:55;;;;;;;4.32;1.52;;;;;;;;;;5368603;26;20003;-67
2024/04/15 04:20:21;;;;;;;4.03;1.58;;;;;;;;;;5369730;26;20431;-67
2024/04/15 04:22:47;;;;;;;12.20;2.20;;;;;;;;;;5356898;26;20722;-67
2024/04/15 04:25:13;;;;;;;1.77;1.67;;;;;;;;;;5371260;26;20048;-68
2024/04/15 04:27:39;;;;;;;1.70;1.30;;;;;;;;;;5374269;26;20019;-68
2024/04/15 04:30:06;;;;;;;2.13;2.03;;;;;;;;;;5363160;26;20387;-68
2024/04/15 04:32:32;;;;;;;4.68;1.52;;;;;;;;;;5374258;26;20004;-67
2024/04/15 04:34:58;;;;;;;2.25;2.00;;;;;;;;;;5365826;26;20005;-68
2024/04/15 04:37:25;;;;;;;1.10;1.10;;;;;;;;;;5371564;26;20004;-68
2024/04/15 04:39:51;;;;;;;1.17;1.17;;;;;;;;;;5374198;26;20007;-67
2024/04/15 04:42:17;;;;;;;9.32;1.55;;;;;;;;;;5378996;26;20376;-67
2024/04/15 04:44:43;;;;;;;3.95;1.38;;;;;;;;;;5372556;26;20011;-67
2024/04/15 04:47:09;;;;;;;1.25;1.15;;;;;;;;;;5378264;26;20100;-67
2024/04/15 04:49:36;;;;;;;1.63;1.52;;;;;;;;;;5375934;26;20023;-67
2024/04/15 04:52:02;;;;;;;1.58;1.45;;;;;;;;;;5369571;26;19996;-67
2024/04/15 04:54:28;;;;;;;4.75;2.08;;;;;;;;;;5361639;26;20012;-68
2024/04/15 04:56:55;;;;;;;3.33;1.75;;;;;;;;;;5363956;26;20001;-67
2024/04/15 04:59:22;;;;;;;6.18;1.75;;;;;;;;;;5362207;26;20410;-67
2024/04/15 05:01:49;;;;;;;1.65;1.55;;;;;;;;;;5367723;26;20000;-68
2024/04/15 05:04:15;;;;;;;7.47;1.63;;;;;;;;;;5367538;26;20004;-67
2024/04/15 05:06:41;;;;;;;4.47;1.83;;;;;;;;;;5368508;26;20032;-67
2024/04/15 05:09:07;;;;;;;2.58;1.30;;;;;;;;;;5366976;26;20007;-67
2024/04/15 05:11:33;;;;;;;3.28;1.30;;;;;;;;;;5364367;26;20015;-67
2024/04/15 05:13:59;;;;;;;1.98;1.70;;;;;;;;;;5377623;26;20439;-67
2024/04/15 05:16:25;;;;;;;1.58;1.20;;;;;;;;;;5363170;26;20016;-68
2024/04/15 05:18:52;;;;;;;1.05;1.05;;;;;;;;;;5395389;26;20003;-67
2024/04/15 05:21:18;;;;;;;4.10;1.63;;;;;;;;;;5365461;26;19996;-67
2024/04/15 05:23:45;;;;;;;5.50;1.40;;;;;;;;;;5370774;26;19996;-66
2024/04/15 05:26:11;;;;;;;5.60;1.55;;;;;;;;;;5387245;26;20019;-68
2024/04/15 05:28:37;;;;;;;17.45;2.30;;;;;;;;;;5367424;26;20018;-67
2024/04/15 05:31:03;;;;;;;1.73;1.63;;;;;;;;;;5364978;26;20000;-66
2024/04/15 05:33:30;;;;;;;2.10;1.98;;;;;;;;;;5356310;26;19996;-67
2024/04/15 05:35:56;;;;;;;2.72;1.48;;;;;;;;;;5365824;26;20015;-67
2024/04/15 05:38:22;;;;;;;1.20;1.20;;;;;;;;;;5370562;26;20001;-67
2024/04/15 05:40:48;;;;;;;3.20;2.40;;;;;;;;;;5368240;26;20012;-67
2024/04/15 05:43:15;;;;;;;1.25;1.25;;;;;;;;;;5371086;26;20462;-67
2024/04/15 05:45:43;;;;;;;1.88;1.30;;;;;;;;;;5375624;26;20015;-67
2024/04/15 05:48:09;;;;;;;5.53;1.67;;;;;;;;;;5372851;26;20332;-67
2024/04/15 05:50:36;;;;;;;9.90;1.95;;;;;;;;;;5378477;26;20052;-66
2024/04/15 05:53:02;;;;;;;6.55;1.55;;;;;;;;;;5375499;26;20000;-67
2024/04/15 05:55:28;;;;;;;3.10;2.88;;;;;;;;;;5370248;26;20000;-67
2024/04/15 05:57:54;;;;;;;4.20;1.48;;;;;;;;;;5359926;26;20008;-67
2024/04/15 06:00:21;;;;;;;6.45;1.70;;;;;;;;;;5369400;26;20348;-68
2024/04/15 06:02:47;;;;;;;4.13;2.55;;;;;;;;;;5359577;26;20082;-69
2024/04/15 06:05:14;;;;;;;7.10;1.85;;;;;;;;;;5361574;26;20001;-67
2024/04/15 06:07:40;;;;;;;1.70;1.60;;;;;;;;;;5349367;26;20288;-68
2024/04/15 06:10:07;;;;;;;1.48;1.38;;;;;;;;;;5347775;26;20042;-68
2024/04/15 06:12:33;;;;;;;6.10;1.70;;;;;;;;;;5390614;26;20312;-68
2024/04/15 06:14:59;;;;;;;2.17;1.70;;;;;;;;;;5346015;26;20546;-67
2024/04/15 06:17:25;;;;;;;1.88;1.77;;;;;;;;;;5345682;26;20005;-68
2024/04/15 06:19:51;;;;;;;1.55;1.45;;;;;;;;;;5364106;26;20000;-68
2024/04/15 06:22:18;;;;;;;3.60;1.48;;;;;;;;;;5351756;26;20433;-68
2024/04/15 06:24:44;;;;;;;3.90;1.52;;;;;;;;;;5354568;26;19996;-68
2024/04/15 06:27:11;;;;;;;1.52;1.17;;;;;;;;;;5365699;26;20343;-67
2024/04/15 06:29:38;;;;;;;3.90;1.80;;;;;;;;;;5367745;26;20471;-67
2024/04/15 06:32:04;;;;;;;15.50;2.33;;;;;;;;;;5354578;26;20125;-68
2024/04/15 06:34:30;;;;;;;3.05;1.65;;;;;;;;;;5343968;26;20038;-68
2024/04/15 06:36:57;;;;;;;6.03;1.55;;;;;;;;;;5362931;26;20513;-63
2024/04/15 06:39:23;;;;;;;3.25;1.83;;;;;;;;;;5364478;26;20026;-63
2024/04/15 06:41:49;;;;;;;1.90;1.80;;;;;;;;;;5359917;26;20001;-63
2024/04/15 06:44:16;;;;;;;5.38;1.63;;;;;;;;;;5350213;26;20015;-63
2024/04/15 06:46:42;;;;;;;7.72;1.70;;;;;;;;;;5345995;26;20046;-63
2024/04/15 06:49:08;;;;;;;2.08;1.80;;;;;;;;;;5356207;26;20001;-63
2024/04/15 06:51:37;;;;;;;5.85;2.85;;;;;;;;;;5350550;26;20374;-63
2024/04/15 06:54:04;;;;;;;8.75;1.83;;;;;;;;;;5357950;26;20449;-63
2024/04/15 06:56:30;;;;;;;3.47;2.55;;;;;;;;;;5358099;26;20011;-64
2024/04/15 06:58:56;;;;;;;4.05;1.67;;;;;;;;;;5380536;26;20015;-63
2024/04/15 07:01:22;;;;;;;3.58;2.00;;;;;;;;;;5346437;26;20348;-64
2024/04/15 07:03:49;;;;;;;7.63;2.13;;;;;;;;;;5344836;26;20001;-65
2024/04/15 07:06:15;;;;;;;6.55;1.85;;;;;;;;;;5352652;26;20409;-63
2024/04/15 07:08:43;;;;;;;2.67;2.28;;;;;;;;;;5373339;26;20025;-64
2024/04/15 07:11:10;;;;;;;8.50;1.80;;;;;;;;;;5351732;26;20061;-63
2024/04/15 07:13:36;;;;;;;2.90;2.00;;;;;;;;;;5352557;26;19993;-63
2024/04/15 07:16:03;;;;;;;2.00;1.65;;;;;;;;;;5356458;26;20004;-63
2024/04/15 07:18:30;;;;;;;6.38;2.92;;;;;;;;;;5356719;26;20466;-63
2024/04/15 07:20:56;;;;;;;3.90;1.80;;;;;;;;;;5360476;26;20117;-63
2024/04/15 07:23:22;;;;;;;4.45;2.13;;;;;;;;;;5356877;26;20000;-63
2024/04/15 07:25:48;;;;;;;3.63;1.67;;;;;;;;;;5376121;26;20020;-63
2024/04/15 07:28:15;;;;;;;3.95;1.80;;;;;;;;;;5358685;26;20016;-66
2024/04/15 07:30:41;;;;;;;2.20;1.67;;;;;;;;;;5367588;26;20001;-66
2024/04/15 07:33:07;;;;;;;6.10;2.53;;;;;;;;;;5351499;26;20012;-64
2024/04/15 07:35:33;;;;;;;4.65;1.55;;;;;;;;;;5354756;26;20073;-63
2024/04/15 07:38:00;;;;;;;9.18;2.58;;;;;;;;;;5331601;26;19997;-63
2024/04/15 07:40:26;;;;;;;2.03;1.85;;;;;;;;;;5356657;26;20015;-64
2024/04/15 07:42:55;;;;;;;3.00;1.80;;;;;;;;;;5348426;26;20004;-63
2024/04/15 07:45:21;;;;;;;4.30;1.95;;;;;;;;;;5361854;26;19996;-63
2024/04/15 07:47:47;;;;;;;6.50;2.08;;;;;;;;;;5353672;26;20000;-66
2024/04/15 07:50:13;;;;;;;7.25;2.47;;;;;;;;;;5357840;26;20634;-63
2024/04/15 07:52:40;;;;;;;3.50;1.98;;;;;;;;;;5359063;26;20005;-63
2024/04/15 07:55:06;;;;;;;7.47;2.17;;;;;;;;;;5351215;26;19996;-62
2024/04/15 07:57:32;;;;;;;3.95;2.20;;;;;;;;;;5345930;26;20546;-63
2024/04/15 07:59:59;;;;;;;4.65;1.77;;;;;;;;;;5361519;26;20336;-63
2024/04/15 08:02:25;;;;;;;4.90;3.00;;;;;;;;;;5362866;26;19996;-63
2024/04/15 08:04:51;;;;;;;4.97;1.92;;;;;;;;;;5357385;26;20019;-63
2024/04/15 08:07:17;;;;;;;1.83;1.73;;;;;;;;;;5355984;26;20341;-64
2024/04/15 08:09:43;;;;;;;6.38;2.33;;;;;;;;;;5365927;26;20317;-63
2024/04/15 08:12:11;;;;;;;8.13;2.30;;;;;;;;;;5365137;26;20340;-65
2024/04/15 08:14:38;;;;;;;5.80;1.75;;;;;;;;;;5365209;26;20013;-63
2024/04/15 08:17:04;;;;;;;12.18;2.45;;;;;;;;;;5360536;26;20033;-63
2024/04/15 08:19:30;;;;;;;2.78;2.13;;;;;;;;;;5364320;26;20003;-63
2024/04/15 08:21:56;;;;;;;2.72;1.65;;;;;;;;;;5355049;26;20005;-63
2024/04/15 08:24:23;;;;;;;5.60;2.05;;;;;;;;;;5359002;26;20469;-63
2024/04/15 08:26:49;;;;;;;2.80;1.98;;;;;;;;;;5348133;26;20506;-63
2024/04/15 08:29:15;;;;;;;7.57;2.17;;;;;;;;;;5379326;26;20015;-64
2024/04/15 08:31:41;;;;;;;8.07;2.20;;;;;;;;;;5355481;26;20000;-64
2024/04/15 08:34:07;;;;;;;7.68;1.77;;;;;;;;;;5362551;26;20437;-63
2024/04/15 08:36:34;;;;;;;6.75;2.53;;;;;;;;;;5358525;26;20026;-63
2024/04/15 08:39:00;;;;;;;1.67;1.58;;;;;;;;;;5359348;26;20004;-63
2024/04/15 08:41:27;;;;;;;6.20;2.08;;;;;;;;;;5368390;26;20000;-63
2024/04/15 08:44:03;;;;;;;6.55;2.20;;;;;;;;;;5351443;26;20004;-64
2024/04/15 08:46:29;;;;;;;3.22;1.80;;;;;;;;;;5335144;26;20333;-64
2024/04/15 08:48:55;;;;;;;3.30;1.98;;;;;;;;;;5355650;26;20004;-64
2024/04/15 08:51:21;;;;;;;9.00;2.05;;;;;;;;;;5345079;26;20008;-64
2024/04/15 08:53:48;;;;;;;5.68;2.25;;;;;;;;;;5356071;26;20015;-64
2024/04/15 08:56:16;;;;;;;7.63;3.15;;;;;;;;;;5344008;26;20342;-63
2024/04/15 08:58:43;;;;;;;4.30;2.08;;;;;;;;;;5372491;26;20433;-67
2024/04/15 09:01:11;;;;;;;6.95;2.10;;;;;;;;;;5340964;26;20318;-63
2024/04/15 09:03:37;;;;;;;2.22;2.08;;;;;;;;;;5354805;26;20369;-63
2024/04/15 09:06:04;;;;;;;4.38;2.47;;;;;;;;;;5368777;26;20000;-64
2024/04/15 09:08:30;;;;;;;7.13;2.00;;;;;;;;;;5400368;26;20004;-63
2024/04/15 09:10:57;;;;;;;2.17;1.70;;;;;;;;;;5373457;26;20081;-64
2024/04/15 09:13:24;;;;;;;4.93;1.40;;;;;;;;;;5361414;26;20012;-64
2024/04/15 09:15:51;;;;;;;1.88;1.73;;;;;;;;;;5340363;26;20077;-63
2024/04/15 09:18:18;;;;;;;1.13;1.13;;;;;;;;;;5357130;26;20775;-64
2024/04/15 09:20:48;;;;;;;1.17;1.17;;;;;;;;;;5350898;26;20025;-63
2024/04/15 09:23:14;;;;;;;1.55;1.38;;;;;;;;;;5355135;26;20008;-63
2024/04/15 09:25:40;;;;;;;1.48;1.30;;;;;;;;;;5363382;26;20000;-65
2024/04/15 09:28:06;;;;;;;1.27;1.27;;;;;;;;;;5334385;26;20073;-64
2024/04/15 09:30:33;;;;;;;5.13;1.40;;;;;;;;;;5348806;26;20466;-63
2024/04/15 09:33:00;;;;;;;5.68;1.30;;;;;;;;;;5349871;26;20382;-63
2024/04/15 09:35:27;;;;;;;2.38;1.50;;;;;;;;;;5356156;26;20021;-63
2024/04/15 09:37:53;;;;;;;1.73;1.63;;;;;;;;;;5342133;26;20302;-64
2024/04/15 09:40:23;;;;;;;1.48;1.38;;;;;;;;;;5350825;26;20406;-64
2024/04/15 09:42:51;;;;;;;1.35;1.30;;;;;;;;;;5384049;26;20004;-63
2024/04/15 09:45:18;;;;;;;2.38;1.45;;;;;;;;;;5358579;26;20225;-64
2024/04/15 09:47:46;;;;;;;3.83;1.60;;;;;;;;;;5350083;26;20016;-63
2024/04/15 09:50:12;;;;;;;1.10;1.10;;;;;;;;;;5348313;26;20443;-63
2024/04/15 09:52:42;;;;;;;1.35;1.35;;;;;;;;;;5357702;26;20496;-62
2024/04/15 09:55:09;;;;;;;1.65;1.60;;;;;;;;;;5341042;26;20005;-62
2024/04/15 09:57:42;;;;;;;1.85;1.45;;;;;;;;;;5361837;26;19996;-62
2024/04/15 10:00:13;;;;;;;1.40;1.40;;;;;;;;;;5351123;26;20663;-62
2024/04/15 10:03:00;;;;;;;1.30;1.30;;;;;;;;;;5354181;26;20004;-62
2024/04/15 10:05:28;;;;;;;1.52;1.42;;;;;;;;;;5354260;26;20402;-63
2024/04/15 10:07:56;;;;;;;1.40;1.40;;;;;;;;;;5352675;26;20055;-66
2024/04/15 10:10:23;;;;;;;1.35;1.35;;;;;;;;;;5354939;26;20000;-63
2024/04/15 10:12:53;;;;;;;4.90;1.88;;;;;;;;;;5368983;26;20433;-63
2024/04/15 10:15:19;;;;;;;1.73;1.63;;;;;;;;;;5341690;26;20060;-63
2024/04/15 10:17:56;;;;;;;9.43;2.38;;;;;;;;;;5351900;26;20009;-63
2024/04/15 10:20:27;;;;;;;3.70;1.70;;;;;;;;;;5382972;26;19996;-63
2024/04/15 10:22:59;;;;;;;1.77;1.67;;;;;;;;;;5385928;26;20449;-63
2024/04/15 10:25:30;;;;;;;4.63;1.92;;;;;;;;;;5347897;26;20009;-62
2024/04/15 10:27:59;;;;;;;10.38;2.83;;;;;;;;;;5367232;26;20000;-63
2024/04/15 10:30:31;;;;;;;8.10;2.00;;;;;;;;;;5357785;26;20433;-63
2024/04/15 10:33:05;;;;;;;2.95;1.70;;;;;;;;;;5358683;26;20476;-63
2024/04/15 10:35:33;;;;;;;2.85;1.92;;;;;;;;;;5348741;26;19996;-63
2024/04/15 10:37:59;;;;;;;2.58;2.22;;;;;;;;;;5356947;26;20024;-63
2024/04/15 10:40:39;;;;;;;3.38;2.03;;;;;;;;;;5348595;26;20349;-63
2024/04/15 10:43:05;;;;;;;8.13;2.33;;;;;;;;;;5353040;26;20008;-64
2024/04/15 10:45:32;;;;;;;1.83;1.70;;;;;;;;;;5361957;26;20141;-63
2024/04/15 10:47:59;;;;;;;8.18;2.17;;;;;;;;;;5358576;26;20469;-63
2024/04/15 10:50:25;;;;;;;8.07;2.00;;;;;;;;;;5350616;26;20004;-63
2024/04/15 10:52:52;;;;;;;4.95;2.85;;;;;;;;;;5352344;26;20708;-63
2024/04/15 10:55:19;;;;;;;8.40;2.33;;;;;;;;;;5354228;26;20558;-63
2024/04/15 10:57:45;;;;;;;3.38;2.38;;;;;;;;;;5348701;26;20559;-63
2024/04/15 11:00:13;;;;;;;8.75;2.88;;;;;;;;;;5376451;26;20677;-63
2024/04/15 11:02:41;;;;;;;3.30;2.08;;;;;;;;;;5344517;26;19997;-63
2024/04/15 11:05:10;;;;;;;5.65;2.65;;;;;;;;;;5351992;26;20371;-63
2024/04/15 11:07:39;;;;;;;5.38;2.05;;;;;;;;;;5354795;26;19996;-63
2024/04/15 11:10:07;;;;;;;2.83;1.90;;;;;;;;;;5352067;26;20547;-63
2024/04/15 11:12:34;;;;;;;4.90;1.85;;;;;;;;;;5356704;26;20020;-63
2024/04/15 11:15:00;;;;;;;1.77;1.67;;;;;;;;;;5364814;26;20011;-63
2024/04/15 11:17:26;;;;;;;3.72;1.92;;;;;;;;;;5351279;26;20033;-62
2024/04/15 11:20:02;;;;;;;3.28;1.65;;;;;;;;;;5355935;26;20019;-63
2024/04/15 11:22:29;;;;;;;6.10;2.15;;;;;;;;;;5351498;26;20448;-63
2024/04/15 11:24:55;;;;;;;6.60;2.00;;;;;;;;;;5353817;26;20038;-63
2024/04/15 11:27:23;;;;;;;5.63;2.53;;;;;;;;;;5379821;26;20009;-63
2024/04/15 11:29:49;;;;;;;5.28;2.38;;;;;;;;;;5350640;26;19997;-64
2024/04/15 11:32:15;;;;;;;4.43;2.35;;;;;;;;;;5355488;26;19997;-64
2024/04/15 11:34:42;;;;;;;6.28;1.98;;;;;;;;;;5377571;26;20000;-63
2024/04/15 11:37:08;;;;;;;3.67;1.67;;;;;;;;;;5357447;26;20056;-63
2024/04/15 11:39:34;;;;;;;2.22;1.83;;;;;;;;;;5357223;26;20015;-63
2024/04/15 11:42:01;;;;;;;2.63;1.83;;;;;;;;;;5364909;26;20012;-64
2024/04/15 11:44:27;;;;;;;2.53;1.80;;;;;;;;;;5352297;26;20399;-63
2024/04/15 11:46:54;;;;;;;3.70;1.85;;;;;;;;;;5363079;26;20009;-64
2024/04/15 11:49:20;;;;;;;2.80;1.73;;;;;;;;;;5371895;26;20457;-63
2024/04/15 11:51:47;;;;;;;6.93;2.13;;;;;;;;;;5350800;26;20460;-64
2024/04/15 11:54:13;;;;;;;2.78;2.30;;;;;;;;;;5349884;26;20005;-64
2024/04/15 11:56:40;;;;;;;5.57;2.28;;;;;;;;;;5367503;26;20444;-64
2024/04/15 11:59:07;;;;;;;1.80;1.70;;;;;;;;;;5358724;26;20000;-63
2024/04/15 12:01:34;;;;;;;9.20;2.15;;;;;;;;;;5353879;26;20032;-64
2024/04/15 12:04:00;;;;;;;8.68;2.17;;;;;;;;;;5365184;26;20484;-64
2024/04/15 12:06:27;;;;;;;2.08;1.80;;;;;;;;;;5355922;26;20408;-64
2024/04/15 12:08:54;;;;;;;3.40;1.60;;;;;;;;;;5341949;26;20537;-63
2024/04/15 12:11:21;;;;;;;3.92;1.85;;;;;;;;;;5358159;26;20001;-64
2024/04/15 12:13:48;;;;;;;5.38;1.77;;;;;;;;;;5355653;26;20034;-64
2024/04/15 12:16:14;;;;;;;4.95;2.70;;;;;;;;;;5351930;26;20426;-64
2024/04/15 12:18:41;;;;;;;1.70;1.60;;;;;;;;;;5361710;26;20078;-64
2024/04/15 12:21:07;;;;;;;5.93;1.90;;;;;;;;;;5358711;26;21321;-63
2024/04/15 12:23:33;;;;;;;2.78;2.10;;;;;;;;;;5355108;26;20134;-64
2024/04/15 12:25:59;;;;;;;5.90;1.80;;;;;;;;;;5366765;26;20339;-63
2024/04/15 12:28:26;;;;;;;2.20;2.00;;;;;;;;;;5361628;26;20005;-64
2024/04/15 12:30:52;;;;;;;3.50;2.05;;;;;;;;;;5359868;26;20341;-64
2024/04/15 12:33:18;;;;;;;5.63;2.05;;;;;;;;;;5352885;26;20015;-64
2024/04/15 12:35:46;;;;;;;3.30;2.40;;;;;;;;;;5351153;26;20003;-64
2024/04/15 12:38:13;;;;;;;6.65;2.30;;;;;;;;;;5356168;26;20334;-64
2024/04/15 12:40:39;;;;;;;6.13;2.00;;;;;;;;;;5344219;26;20000;-64
2024/04/15 12:43:05;;;;;;;4.68;1.90;;;;;;;;;;5343429;26;20431;-64
2024/04/15 12:45:32;;;;;;;2.20;1.38;;;;;;;;;;5354675;26;20020;-64
2024/04/15 12:47:58;;;;;;;1.30;1.30;;;;;;;;;;5360422;26;20050;-64
2024/04/15 12:50:24;;;;;;;1.60;1.50;;;;;;;;;;5359858;26;19996;-64
2024/04/15 12:52:51;;;;;;;1.70;1.60;;;;;;;;;;5365955;26;20020;-65
2024/04/15 12:55:17;;;;;;;3.05;1.70;;;;;;;;;;5365104;26;20054;-65
2024/04/15 12:57:43;;;;;;;5.85;2.10;;;;;;;;;;5353506;26;20004;-65
2024/04/15 13:00:10;;;;;;;3.60;1.88;;;;;;;;;;5361875;26;20020;-65
2024/04/15 13:02:38;;;;;;;3.55;2.13;;;;;;;;;;5362513;26;20015;-66
2024/04/15 13:05:10;;;;;;;5.97;3.40;;;;;;;;;;5354922;26;20020;-65
2024/04/15 13:07:36;;;;;;;5.18;3.28;;;;;;;;;;5381874;26;20009;-65
2024/04/15 13:10:03;;;;;;;4.55;2.45;;;;;;;;;;5356286;26;20078;-66
2024/04/15 13:12:29;;;;;;;2.92;2.58;;;;;;;;;;5344479;26;20001;-65
2024/04/15 13:14:55;;;;;;;8.27;3.35;;;;;;;;;;5355331;26;20015;-66
2024/04/15 13:17:21;;;;;;;4.63;1.58;;;;;;;;;;5382127;26;20001;-66
2024/04/15 13:19:48;;;;;;;7.13;2.63;;;;;;;;;;5352977;26;20004;-66
2024/04/15 13:22:14;;;;;;;4.43;2.50;;;;;;;;;;5346081;26;20000;-64
2024/04/15 13:24:40;;;;;;;6.22;2.63;;;;;;;;;;5360446;26;20008;-65
2024/04/15 13:27:06;;;;;;;7.65;2.80;;;;;;;;;;5354675;26;20032;-64
2024/04/15 13:29:33;;;;;;;6.82;3.20;;;;;;;;;;5349281;26;20079;-65
2024/04/15 13:32:00;;;;;;;6.25;3.30;;;;;;;;;;5355795;26;20003;-65
2024/04/15 13:34:27;;;;;;;8.73;3.50;;;;;;;;;;5347761;26;20015;-64
2024/04/15 13:36:55;;;;;;;5.82;3.33;;;;;;;;;;5353376;26;20000;-65
2024/04/15 13:39:23;;;;;;;7.18;3.10;;;;;;;;;;5359646;26;20466;-64
2024/04/15 13:41:51;;;;;;;10.48;4.18;;;;;;;;;;5361719;26;20001;-64
2024/04/15 13:44:17;;;;;;;4.93;2.63;;;;;;;;;;5346719;26;20083;-64
2024/04/15 13:46:43;;;;;;;12.02;4.65;;;;;;;;;;5357452;26;20000;-66
2024/04/15 13:49:10;;;;;;;9.73;4.35;;;;;;;;;;5349002;26;20001;-64
2024/04/15 13:51:36;;;;;;;22.20;8.20;;;;;;;;;;5358895;26;20005;-64
2024/04/15 13:54:02;;;;;;;21.20;7.28;;;;;;;;;;5351287;26;20042;-64
2024/04/15 13:56:28;;;;;;;15.10;6.47;;;;;;;;;;5363673;26;20107;-65
2024/04/15 13:58:54;;;;;;;6.03;5.00;;;;;;;;;;5356228;26;20000;-65
2024/04/15 14:01:21;;;;;;;4.72;4.05;;;;;;;;;;5354654;26;20000;-65
2024/04/15 14:03:47;;;;;;;8.10;4.05;;;;;;;;;;5355858;26;20001;-65
2024/04/15 14:06:13;;;;;;;11.85;6.35;;;;;;;;;;5357717;26;19996;-65
2024/04/15 14:08:39;;;;;;;7.85;4.25;;;;;;;;;;5355087;26;20539;-66
2024/04/15 14:11:06;;;;;;;6.28;3.63;;;;;;;;;;5355572;26;20479;-66
2024/04/15 14:13:32;;;;;;;6.18;2.50;;;;;;;;;;5352942;26;20421;-65
2024/04/15 14:15:58;;;;;;;4.32;2.67;;;;;;;;;;5364592;26;20051;-65
2024/04/15 14:18:24;;;;;;;8.00;3.58;;;;;;;;;;5363516;26;20004;-65
2024/04/15 14:20:50;;;;;;;9.27;3.78;;;;;;;;;;5336218;26;20007;-66
2024/04/15 14:23:17;;;;;;;4.82;3.22;;;;;;;;;;5353426;26;20008;-65
2024/04/15 14:25:43;;;;;;;7.03;3.08;;;;;;;;;;5348004;26;20021;-65
2024/04/15 14:28:09;;;;;;;5.03;2.45;;;;;;;;;;5352943;26;20005;-66
2024/04/15 14:30:38;;;;;;;3.65;1.98;;;;;;;;;;5345972;26;19996;-66
2024/04/15 14:33:04;;;;;;;3.78;2.10;;;;;;;;;;5367795;26;20558;-66
2024/04/15 14:35:31;;;;;;;3.22;1.60;;;;;;;;;;5342514;26;20001;-66
2024/04/15 14:37:57;;;;;;;4.82;1.70;;;;;;;;;;5365483;26;20007;-66
2024/04/15 14:40:23;;;;;;;5.00;1.70;;;;;;;;;;5358080;26;20643;-66